createdAt,value
2022-10-11T00:02:05.010Z,18.35
2022-10-11T00:04:31.266Z,18.33
2022-10-11T00:06:57.542Z,19.38
2022-10-11T00:09:23.908Z,21.10
2022-10-11T00:11:50.196Z,19.75
2022-10-11T00:14:16.459Z,21.40
2022-10-11T00:16:44.433Z,22.30
2022-10-11T00:19:11.299Z,21.48
2022-10-11T00:21:37.725Z,22.88
2022-10-11T00:24:04.217Z,24.20
2022-10-11T00:26:30.498Z,22.20
2022-10-11T00:28:56.948Z,23.90
2022-10-11T00:31:23.604Z,24.77
2022-10-11T00:33:49.892Z,25.70
2022-10-11T00:36:17.399Z,26.58
2022-10-11T00:38:44.097Z,26.92
2022-10-11T00:41:10.785Z,26.02
2022-10-11T00:43:37.158Z,25.90
2022-10-11T00:46:18.695Z,26.80
2022-10-11T00:48:47.522Z,26.00
2022-10-11T00:51:13.764Z,25.98
2022-10-11T00:53:40.381Z,26.33
2022-10-11T00:56:09.793Z,25.73
2022-10-11T00:58:36.310Z,24.90
2022-10-11T01:01:03.184Z,26.42
2022-10-11T01:03:30.316Z,25.85
2022-10-11T01:05:56.669Z,25.90
2022-10-11T01:08:23.201Z,26.33
2022-10-11T01:10:49.461Z,24.73
2022-10-11T01:13:34.685Z,23.55
2022-10-11T01:16:04.182Z,21.77
2022-10-11T01:18:35.420Z,18.45
2022-10-11T01:21:07.138Z,17.35
2022-10-11T01:23:33.394Z,16.58
2022-10-11T01:26:14.849Z,15.07
2022-10-11T01:28:43.433Z,14.85
2022-10-11T01:31:23.017Z,14.90
2022-10-11T01:33:58.952Z,13.65
2022-10-11T01:36:33.590Z,13.00
2022-10-11T01:39:03.980Z,10.98
2022-10-11T01:41:42.316Z,10.75
2022-10-11T01:44:09.314Z,9.00
2022-10-11T01:46:36.252Z,8.77
2022-10-11T01:49:04.356Z,7.80
2022-10-11T01:51:47.293Z,7.45
2022-10-11T01:54:19.937Z,6.97
2022-10-11T01:56:46.199Z,6.15
2022-10-11T01:59:21.652Z,6.20
2022-10-11T02:01:47.968Z,6.60
2022-10-11T02:04:17.256Z,5.30
2022-10-11T02:06:48.953Z,5.50
2022-10-11T02:09:19.946Z,5.07
2022-10-11T02:11:46.517Z,5.15
2022-10-11T02:14:15.422Z,4.57
2022-10-11T02:16:43.712Z,4.78
2022-10-11T02:19:11.717Z,4.55
2022-10-11T02:21:39.460Z,4.60
2022-10-11T02:24:08.189Z,4.20
2022-10-11T02:26:34.726Z,4.40
2022-10-11T02:29:03.885Z,4.40
2022-10-11T02:31:31.098Z,3.95
2022-10-11T02:34:05.693Z,3.92
2022-10-11T02:36:38.923Z,3.47
2022-10-11T02:39:07.713Z,3.87
2022-10-11T02:41:38.673Z,3.67
2022-10-11T02:44:07.714Z,4.00
2022-10-11T02:46:34.394Z,4.22
2022-10-11T02:49:00.752Z,3.95
2022-10-11T02:51:29.499Z,3.90
2022-10-11T02:53:55.789Z,3.95
2022-10-11T02:56:22.049Z,4.20
2022-10-11T02:58:48.704Z,3.47
2022-10-11T03:01:15.164Z,3.72
2022-10-11T03:03:41.686Z,3.78
2022-10-11T03:06:08.680Z,4.15
2022-10-11T03:08:35.224Z,3.80
2022-10-11T03:11:01.654Z,3.13
2022-10-11T03:13:27.969Z,3.50
2022-10-11T03:16:02.632Z,3.17
2022-10-11T03:18:30.612Z,3.17
2022-10-11T03:20:56.910Z,3.17
2022-10-11T03:23:23.234Z,3.65
2022-10-11T03:25:51.930Z,3.30
2022-10-11T03:28:18.653Z,3.20
2022-10-11T03:30:46.869Z,3.00
2022-10-11T03:33:13.166Z,3.13
2022-10-11T03:35:40.554Z,3.33
2022-10-11T03:38:10.076Z,3.20
2022-10-11T03:40:38.558Z,3.65
2022-10-11T03:43:04.826Z,3.22
2022-10-11T03:45:31.092Z,3.70
2022-10-11T03:47:57.624Z,3.17
2022-10-11T03:50:24.658Z,3.25
2022-10-11T03:52:51.010Z,3.30
2022-10-11T03:55:17.340Z,3.22
2022-10-11T03:57:43.665Z,3.10
2022-10-11T04:00:10.178Z,3.50
2022-10-11T04:02:39.171Z,3.70
2022-10-11T04:05:06.406Z,3.38
2022-10-11T04:07:33.167Z,4.00
2022-10-11T04:09:59.591Z,4.25
2022-10-11T04:12:25.878Z,4.35
2022-10-11T04:14:52.208Z,4.20
2022-10-11T04:17:18.504Z,3.90
2022-10-11T04:19:44.781Z,4.63
2022-10-11T04:22:11.045Z,3.97
2022-10-11T04:24:37.340Z,4.07
2022-10-11T04:27:03.658Z,4.30
2022-10-11T04:29:32.527Z,3.70
2022-10-11T04:31:59.366Z,4.18
2022-10-11T04:34:25.708Z,3.60
2022-10-11T04:36:51.993Z,3.60
2022-10-11T04:39:18.361Z,3.88
2022-10-11T04:41:44.660Z,2.95
2022-10-11T04:44:10.929Z,2.88
2022-10-11T04:46:37.196Z,2.40
2022-10-11T04:49:03.495Z,2.25
2022-10-11T04:51:30.275Z,2.63
2022-10-11T04:53:56.724Z,2.20
2022-10-11T04:56:22.987Z,2.35
2022-10-11T04:58:49.515Z,2.55
2022-10-11T05:01:15.965Z,2.60
2022-10-11T05:03:42.274Z,2.22
2022-10-11T05:06:08.848Z,2.85
2022-10-11T05:08:35.450Z,3.17
2022-10-11T05:11:03.869Z,2.88
2022-10-11T05:13:31.089Z,3.05
2022-10-11T05:15:57.821Z,2.85
2022-10-11T05:18:24.462Z,2.60
2022-10-11T05:21:03.277Z,2.40
2022-10-11T05:23:30.514Z,2.15
2022-10-11T05:25:57.101Z,2.10
2022-10-11T05:28:23.396Z,2.10
2022-10-11T05:30:49.756Z,2.13
2022-10-11T05:33:16.038Z,1.83
2022-10-11T05:35:42.409Z,2.47
2022-10-11T05:38:08.672Z,2.17
2022-10-11T05:40:36.337Z,1.80
2022-10-11T05:43:02.704Z,2.00
2022-10-11T05:45:28.975Z,2.20
2022-10-11T05:47:55.236Z,2.13
2022-10-11T05:50:24.299Z,2.60
2022-10-11T05:52:50.889Z,1.83
2022-10-11T05:55:17.190Z,2.15
2022-10-11T05:57:44.288Z,2.20
2022-10-11T06:00:10.751Z,1.77
2022-10-11T06:02:40.123Z,2.17
2022-10-11T06:05:06.497Z,2.40
2022-10-11T06:07:32.805Z,2.28
2022-10-11T06:09:59.082Z,3.10
2022-10-11T06:12:25.396Z,3.08
2022-10-11T06:14:51.681Z,2.47
2022-10-11T06:17:18.049Z,2.80
2022-10-11T06:19:44.398Z,2.88
2022-10-11T06:22:11.403Z,2.58
2022-10-11T06:24:37.742Z,2.70
2022-10-11T06:27:04.175Z,2.70
2022-10-11T06:29:30.610Z,2.42
2022-10-11T06:31:56.916Z,2.95
2022-10-11T06:34:23.232Z,2.92
2022-10-11T06:36:49.526Z,2.85
2022-10-11T06:39:15.843Z,2.58
2022-10-11T06:41:42.194Z,2.42
2022-10-11T06:44:14.010Z,2.70
2022-10-11T06:46:40.773Z,2.60
2022-10-11T06:49:07.209Z,2.80
2022-10-11T06:51:35.284Z,3.28
2022-10-11T06:54:01.803Z,3.35
2022-10-11T06:56:29.276Z,3.75
2022-10-11T06:58:56.449Z,3.25
2022-10-11T07:01:23.642Z,3.10
2022-10-11T07:03:51.245Z,2.67
2022-10-11T07:06:19.264Z,2.53
2022-10-11T07:08:45.993Z,3.00
2022-10-11T07:11:13.792Z,2.33
2022-10-11T07:13:40.524Z,2.63
2022-10-11T07:16:08.593Z,2.60
2022-10-11T07:18:35.413Z,1.92
2022-10-11T07:21:06.144Z,1.80
2022-10-11T07:23:32.699Z,2.17
2022-10-11T07:25:59.140Z,2.45
2022-10-11T07:28:25.676Z,2.05
2022-10-11T07:30:52.081Z,1.92
2022-10-11T07:33:18.421Z,2.63
2022-10-11T07:35:48.224Z,3.17
2022-10-11T07:38:15.154Z,3.28
2022-10-11T07:40:42.765Z,3.00
2022-10-11T07:43:09.469Z,3.20
2022-10-11T07:45:39.267Z,2.25
2022-10-11T07:48:06.013Z,2.55
2022-10-11T07:50:32.845Z,2.40
2022-10-11T07:52:59.184Z,2.60
2022-10-11T07:55:27.386Z,3.45
2022-10-11T07:57:56.961Z,3.55
2022-10-11T08:00:23.856Z,2.20
2022-10-11T08:02:50.241Z,1.98
2022-10-11T08:05:16.563Z,2.28
2022-10-11T08:07:42.911Z,2.00
2022-10-11T08:10:09.539Z,1.90
2022-10-11T08:12:35.899Z,2.25
2022-10-11T08:15:02.233Z,1.98
2022-10-11T08:17:29.444Z,2.22
2022-10-11T08:19:55.847Z,2.05
2022-10-11T08:22:22.208Z,2.20
2022-10-11T08:24:49.056Z,1.95
2022-10-11T08:27:15.366Z,2.38
2022-10-11T08:29:41.668Z,2.58
2022-10-11T08:32:11.783Z,2.10
2022-10-11T08:34:38.238Z,2.40
2022-10-11T08:37:04.566Z,2.20
2022-10-11T08:39:30.935Z,2.65
2022-10-11T08:42:00.206Z,2.65
2022-10-11T08:45:09.079Z,7.03
2022-10-11T08:47:32.994Z,2.83
2022-10-11T08:49:59.781Z,2.28
2022-10-11T08:52:28.062Z,1.90
2022-10-11T08:55:13.195Z,2.30
2022-10-11T08:57:40.084Z,2.00
2022-10-11T09:00:07.429Z,2.20
2022-10-11T09:03:09.228Z,2.67
2022-10-11T09:05:39.390Z,2.30
2022-10-11T09:08:05.729Z,2.10
2022-10-11T09:10:31.968Z,2.30
2022-10-11T09:13:16.998Z,2.60
2022-10-11T09:15:58.888Z,2.53
2022-10-11T09:18:49.645Z,1.98
2022-10-11T09:21:34.386Z,2.17
2022-10-11T09:24:03.664Z,2.53
2022-10-11T09:26:45.320Z,2.55
2022-10-11T09:29:11.672Z,2.40
2022-10-11T09:31:38.013Z,3.25
2022-10-11T09:34:12.365Z,2.80
2022-10-11T09:36:46.870Z,2.70
2022-10-11T09:39:33.741Z,2.33
2022-10-11T09:42:01.660Z,2.00
2022-10-11T09:44:29.328Z,2.22
2022-10-11T09:46:56.256Z,2.30
2022-10-11T09:49:24.660Z,2.10
2022-10-11T09:51:52.486Z,2.38
2022-10-11T09:54:22.178Z,2.20
2022-10-11T09:56:48.537Z,2.20
2022-10-11T09:59:27.078Z,2.20
2022-10-11T10:02:06.743Z,2.15
2022-10-11T10:04:33.139Z,2.33
2022-10-11T10:07:10.163Z,2.17
2022-10-11T10:09:36.537Z,2.00
2022-10-11T10:12:10.775Z,2.05
2022-10-11T10:14:37.049Z,2.00
2022-10-11T10:17:05.285Z,2.03
2022-10-11T10:19:39.905Z,2.20
2022-10-11T10:22:18.661Z,2.00
2022-10-11T10:24:45.129Z,2.20
2022-10-11T10:27:16.945Z,2.00
2022-10-11T10:29:44.065Z,2.03
2022-10-11T10:32:16.350Z,2.30
2022-10-11T10:34:56.681Z,2.10
2022-10-11T10:37:26.076Z,1.85
2022-10-11T10:40:02.387Z,2.33
2022-10-11T10:42:28.768Z,2.15
2022-10-11T10:44:56.892Z,2.03
2022-10-11T10:47:28.977Z,1.98
2022-10-11T10:50:00.370Z,1.60
2022-10-11T10:52:45.424Z,1.50
2022-10-11T10:55:33.807Z,2.13
2022-10-11T10:58:00.036Z,1.60
2022-10-11T11:00:28.431Z,1.65
2022-10-11T11:02:55.050Z,1.90
2022-10-11T11:05:27.773Z,1.80
2022-10-11T11:08:06.297Z,2.73
2022-10-11T11:10:41.970Z,2.10
2022-10-11T11:13:33.789Z,2.63
2022-10-11T11:16:12.405Z,2.47
2022-10-11T11:18:47.083Z,2.30
2022-10-11T11:21:32.241Z,2.03
2022-10-11T11:24:07.926Z,2.15
2022-10-11T11:26:34.179Z,2.00
2022-10-11T11:29:26.722Z,1.83
2022-10-11T11:32:05.107Z,1.92
2022-10-11T11:34:33.997Z,1.85
2022-10-11T11:37:03.521Z,2.05
2022-10-11T11:39:33.658Z,1.98
2022-10-11T11:42:04.193Z,2.00
2022-10-11T11:44:33.569Z,1.67
2022-10-11T11:47:02.820Z,2.25
2022-10-11T11:49:31.948Z,1.92
2022-10-11T11:51:59.061Z,2.08
2022-10-11T11:54:44.146Z,1.58
2022-10-11T11:57:19.756Z,1.75
2022-10-11T11:59:58.508Z,1.90
2022-10-11T12:02:32.460Z,1.80
2022-10-11T12:04:59.184Z,2.00
2022-10-11T12:07:26.450Z,1.38
2022-10-11T12:09:54.359Z,2.03
2022-10-11T12:12:31.851Z,1.48
2022-10-11T12:15:04.397Z,2.00
2022-10-11T12:17:31.071Z,1.90
2022-10-11T12:20:03.482Z,2.10
2022-10-11T12:22:29.761Z,1.67
2022-10-11T12:25:22.413Z,1.45
2022-10-11T12:27:50.277Z,1.98
2022-10-11T12:30:35.525Z,1.70
2022-10-11T12:33:15.362Z,1.73
2022-10-11T12:35:51.170Z,1.50
2022-10-11T12:38:39.247Z,1.85
2022-10-11T12:41:08.566Z,1.67
2022-10-11T12:43:36.225Z,1.70
2022-10-11T12:46:21.229Z,1.70
2022-10-11T12:48:51.769Z,1.58
2022-10-11T12:51:21.368Z,1.50
2022-10-11T12:54:25.553Z,1.90
2022-10-11T12:57:02.945Z,1.50
2022-10-11T12:59:31.025Z,1.50
2022-10-11T13:02:00.388Z,1.60
2022-10-11T13:04:29.108Z,1.50
2022-10-11T13:06:56.894Z,2.10
2022-10-11T13:09:32.557Z,1.60
2022-10-11T13:12:03.975Z,1.67
2022-10-11T13:14:32.047Z,1.50
2022-10-11T13:17:06.997Z,1.60
2022-10-11T13:19:34.860Z,1.63
2022-10-11T13:22:06.392Z,1.40
2022-10-11T13:24:39.560Z,1.30
2022-10-11T13:27:06.422Z,1.75
2022-10-11T13:29:33.630Z,1.40
2022-10-11T13:32:08.172Z,1.42
2022-10-11T13:34:37.419Z,1.50
2022-10-11T13:37:03.752Z,2.08
2022-10-11T13:39:31.684Z,1.70
2022-10-11T13:41:59.090Z,1.73
2022-10-11T13:44:25.761Z,1.60
2022-10-11T13:46:52.488Z,2.05
2022-10-11T13:49:37.617Z,1.92
2022-10-11T13:52:24.223Z,2.22
2022-10-11T13:54:58.061Z,1.40
2022-10-11T13:57:32.587Z,1.45
2022-10-11T13:59:59.060Z,2.03
2022-10-11T14:02:26.217Z,1.85
2022-10-11T14:04:52.477Z,1.60
2022-10-11T14:07:26.613Z,1.38
2022-10-11T14:12:22.486Z,1.70
2022-10-11T14:14:48.786Z,1.73
2022-10-11T14:17:22.097Z,1.70
2022-10-11T14:20:07.280Z,2.33
2022-10-11T14:22:36.534Z,1.75
2022-10-11T14:25:02.904Z,1.98
2022-10-11T14:27:29.591Z,1.50
2022-10-11T14:30:23.557Z,1.60
2022-10-11T14:32:42.336Z,1.75
2022-10-11T14:35:16.630Z,1.65
2022-10-11T14:37:43.150Z,1.80
2022-10-11T14:40:13.934Z,1.73
2022-10-11T14:42:40.200Z,1.60
2022-10-11T14:45:06.790Z,1.48
2022-10-11T14:47:33.143Z,1.80
2022-10-11T14:49:59.405Z,1.92
2022-10-11T14:52:25.685Z,1.65
2022-10-11T14:54:51.993Z,1.33
2022-10-11T14:57:18.301Z,1.70
2022-10-11T14:59:44.586Z,1.80
2022-10-11T15:02:11.475Z,1.77
2022-10-11T15:04:37.924Z,1.65
2022-10-11T15:07:04.526Z,1.85
2022-10-11T15:09:30.997Z,1.33
2022-10-11T15:11:57.738Z,1.80
2022-10-11T15:14:24.470Z,1.90
2022-10-11T15:16:50.795Z,1.67
2022-10-11T15:19:18.693Z,1.40
2022-10-11T15:21:45.413Z,1.65
2022-10-11T15:24:11.726Z,1.83
2022-10-11T15:26:38.097Z,1.67
2022-10-11T15:29:04.433Z,1.65
2022-10-11T15:31:30.704Z,1.73
2022-10-11T15:33:59.488Z,1.80
2022-10-11T15:36:26.174Z,1.52
2022-10-11T15:38:52.433Z,1.90
2022-10-11T15:41:19.793Z,1.92
2022-10-11T15:43:46.969Z,1.58
2022-10-11T15:46:14.832Z,2.00
2022-10-11T15:48:41.148Z,1.75
2022-10-11T15:51:07.401Z,1.90
2022-10-11T15:53:33.725Z,1.45
2022-10-11T15:56:08.653Z,2.25
2022-10-11T15:58:36.587Z,2.05
2022-10-11T16:01:12.297Z,1.75
2022-10-11T16:03:38.648Z,1.95
2022-10-11T16:06:05.878Z,1.83
2022-10-11T16:08:32.830Z,2.17
2022-10-11T16:10:59.373Z,2.03
2022-10-11T16:13:25.675Z,1.80
2022-10-11T16:15:52.090Z,2.20
2022-10-11T16:18:20.760Z,2.15
2022-10-11T16:20:48.010Z,1.90
2022-10-11T16:23:14.593Z,2.55
2022-10-11T16:25:41.261Z,2.22
2022-10-11T16:28:07.993Z,2.33
2022-10-11T16:30:35.212Z,2.30
2022-10-11T16:33:01.461Z,2.22
2022-10-11T16:35:32.251Z,2.22
2022-10-11T16:37:59.213Z,2.20
2022-10-11T16:40:27.543Z,2.40
2022-10-11T16:42:53.801Z,2.10
2022-10-11T16:45:20.144Z,2.33
2022-10-11T16:47:46.480Z,2.10
2022-10-11T16:50:13.165Z,2.20
2022-10-11T16:52:39.476Z,2.20
2022-10-11T16:55:06.105Z,1.80
2022-10-11T16:57:32.499Z,2.30
2022-10-11T16:59:58.770Z,2.08
2022-10-11T17:02:31.399Z,2.17
2022-10-11T17:04:58.719Z,2.70
2022-10-11T17:07:25.009Z,2.30
2022-10-11T17:09:51.397Z,2.60
2022-10-11T17:12:19.115Z,3.40
2022-10-11T17:14:45.496Z,3.53
2022-10-11T17:17:12.169Z,3.10
2022-10-11T17:19:45.006Z,4.10
2022-10-11T17:22:12.313Z,4.22
2022-10-11T17:24:39.085Z,4.32
2022-10-11T17:27:06.165Z,5.05
2022-10-11T17:29:32.548Z,5.78
2022-10-11T17:31:58.913Z,6.45
2022-10-11T17:34:25.208Z,8.18
2022-10-11T17:36:51.730Z,9.65
2022-10-11T17:39:19.278Z,12.10
2022-10-11T17:41:45.593Z,15.57
2022-10-11T17:44:12.403Z,14.18
2022-10-11T17:46:38.854Z,12.80
2022-10-11T17:49:06.520Z,8.02
2022-10-11T17:51:33.581Z,5.13
2022-10-11T17:54:00.027Z,4.93
2022-10-11T17:56:29.678Z,5.43
2022-10-11T17:58:58.226Z,8.55
2022-10-11T18:01:25.973Z,5.50
2022-10-11T18:03:53.383Z,4.30
2022-10-11T18:06:19.672Z,4.35
2022-10-11T18:08:46.062Z,4.55
2022-10-11T18:11:13.418Z,4.68
2022-10-11T18:13:42.637Z,5.00
2022-10-11T18:16:09.922Z,5.72
2022-10-11T18:18:36.513Z,5.85
2022-10-11T18:21:03.157Z,7.15
2022-10-11T18:23:29.433Z,6.68
2022-10-11T18:25:55.718Z,6.57
2022-10-11T18:28:22.059Z,5.78
2022-10-11T18:30:48.617Z,6.10
2022-10-11T18:33:15.389Z,5.93
2022-10-11T18:35:41.996Z,6.10
2022-10-11T18:38:08.673Z,5.57
2022-10-11T18:40:41.269Z,6.20
2022-10-11T18:43:09.815Z,6.30
2022-10-11T18:45:36.107Z,7.00
2022-10-11T18:48:02.505Z,6.22
2022-10-11T18:50:28.758Z,6.40
2022-10-11T18:52:55.049Z,6.50
2022-10-11T18:55:21.372Z,5.30
2022-10-11T18:57:47.743Z,5.47
2022-10-11T19:00:37.720Z,5.93
2022-10-11T19:03:00.605Z,6.15
2022-10-11T19:05:27.593Z,5.57
2022-10-11T19:07:53.858Z,5.40
2022-10-11T19:10:20.131Z,5.50
2022-10-11T19:12:46.402Z,5.93
2022-10-11T19:15:12.770Z,7.22
2022-10-11T19:17:39.132Z,6.90
2022-10-11T19:20:05.903Z,6.53
2022-10-11T19:22:32.169Z,7.35
2022-10-11T19:24:58.425Z,7.47
2022-10-11T19:27:24.836Z,7.05
2022-10-11T19:29:51.126Z,7.10
2022-10-11T19:32:17.384Z,7.25
2022-10-11T19:34:43.691Z,7.20
2022-10-11T19:37:13.349Z,7.07
2022-10-11T19:39:40.062Z,8.77
2022-10-11T19:42:06.333Z,9.25
2022-10-11T19:44:37.159Z,8.60
2022-10-11T19:47:05.893Z,7.18
2022-10-11T19:49:32.184Z,6.30
2022-10-11T19:51:58.475Z,6.03
2022-10-11T19:54:24.957Z,5.70
2022-10-11T19:56:51.296Z,5.55
2022-10-11T19:59:17.678Z,5.53
2022-10-11T20:01:49.417Z,5.97
2022-10-11T20:04:39.452Z,5.70
2022-10-11T20:07:04.213Z,4.90
2022-10-11T20:09:31.070Z,5.40
2022-10-11T20:11:57.706Z,5.53
2022-10-11T20:14:24.209Z,5.90
2022-10-11T20:16:50.690Z,5.45
2022-10-11T20:19:17.431Z,6.03
2022-10-11T20:21:43.931Z,5.25
2022-10-11T20:24:10.321Z,5.00
2022-10-11T20:26:36.719Z,5.38
2022-10-11T20:29:03.262Z,5.30
2022-10-11T20:31:33.204Z,5.25
2022-10-11T20:34:04.833Z,5.15
2022-10-11T20:36:31.653Z,5.40
2022-10-11T20:38:58.933Z,6.07
2022-10-11T20:41:26.578Z,5.03
2022-10-11T20:43:54.206Z,5.47
2022-10-11T20:46:21.838Z,5.20
2022-10-11T20:48:49.471Z,5.68
2022-10-11T20:51:15.786Z,5.45
2022-10-11T20:53:42.162Z,5.05
2022-10-11T20:56:10.170Z,4.78
2022-10-11T20:58:36.491Z,5.60
2022-10-11T21:01:09.229Z,6.22
2022-10-11T21:03:35.756Z,5.78
2022-10-11T21:06:02.077Z,5.97
2022-10-11T21:10:55.604Z,5.30
2022-10-11T21:13:22.058Z,5.05
2022-10-11T21:15:48.411Z,5.00
2022-10-11T21:18:14.856Z,4.20
2022-10-11T21:20:41.800Z,4.35
2022-10-11T21:23:08.512Z,4.45
2022-10-11T21:25:35.272Z,4.35
2022-10-11T21:28:01.709Z,4.97
2022-10-11T21:30:27.984Z,4.45
2022-10-11T21:32:57.490Z,4.90
2022-10-11T21:35:24.321Z,5.20
2022-10-11T21:37:50.625Z,4.55
2022-10-11T21:40:16.968Z,5.28
2022-10-11T21:42:43.226Z,5.15
2022-10-11T21:45:09.507Z,4.72
2022-10-11T21:47:39.017Z,4.72
2022-10-11T21:50:05.949Z,4.82
2022-10-11T21:52:32.375Z,4.18
2022-10-11T21:54:58.764Z,5.22
2022-10-11T21:57:25.025Z,4.78
2022-10-11T21:59:51.301Z,4.22
2022-10-11T22:02:17.560Z,3.80
2022-10-11T22:04:43.823Z,4.00
2022-10-11T22:07:10.117Z,4.45
2022-10-11T22:09:36.381Z,4.28
2022-10-11T22:12:03.493Z,4.70
2022-10-11T22:14:30.364Z,4.40
2022-10-11T22:16:56.728Z,5.20
2022-10-11T22:19:23.445Z,4.43
2022-10-11T22:21:49.853Z,4.47
2022-10-11T22:24:16.651Z,4.00
2022-10-11T22:26:42.990Z,4.30
2022-10-11T22:29:09.553Z,4.22
2022-10-11T22:31:35.827Z,3.72
2022-10-11T22:34:02.136Z,4.10
2022-10-11T22:36:30.278Z,3.78
2022-10-11T22:38:56.956Z,4.22
2022-10-11T22:41:23.550Z,4.45
2022-10-11T22:43:49.892Z,6.28
2022-10-11T22:46:16.439Z,4.45
2022-10-11T22:48:43.212Z,4.03
2022-10-11T22:51:09.530Z,4.20
2022-10-11T22:53:35.786Z,3.97
2022-10-11T22:56:02.069Z,3.80
2022-10-11T22:58:28.329Z,4.07
2022-10-11T23:00:54.617Z,4.20
2022-10-11T23:03:20.989Z,4.43
2022-10-11T23:05:54.386Z,4.45
2022-10-11T23:08:20.684Z,4.20
2022-10-11T23:10:47.001Z,4.53
2022-10-11T23:13:13.282Z,4.10
2022-10-11T23:15:40.397Z,4.00
2022-10-11T23:18:06.756Z,4.20
2022-10-11T23:20:33.064Z,3.95
2022-10-11T23:22:59.361Z,4.03
2022-10-11T23:25:25.668Z,3.92
2022-10-11T23:27:51.951Z,3.45
2022-10-11T23:30:18.204Z,3.55
2022-10-11T23:32:44.504Z,3.95
2022-10-11T23:35:10.809Z,3.50
2022-10-11T23:37:37.273Z,3.13
2022-10-11T23:40:04.122Z,4.05
2022-10-11T23:42:30.388Z,3.85
2022-10-11T23:44:56.688Z,3.53
2022-10-11T23:47:22.947Z,3.72
2022-10-11T23:49:49.212Z,3.00
2022-10-11T23:52:15.501Z,2.50
2022-10-11T23:54:41.781Z,3.20
2022-10-11T23:57:08.037Z,2.88
2022-10-11T23:59:34.340Z,2.72
